Time;durP1;ratioP1;P1;durP2;ratioP2;P2;SDS_P1;SDS_P2;PMS_P1;PMS_P2;Temp;Humidity;BMP_temperature;BMP_pressure;BME280_temperature;BME280_humidity;BME280_pressure;Samples;Min_cycle;Max_cycle;Signal;HPM_P1;HPM_P2
2024/01/17 00:00:44;;;;;;;7.90;5.30;;;;;;;-2.94;82.22;95746.86;108908;1278;22543;-85
2024/01/17 00:03:30;;;;;;;5.50;4.80;;;;;;;-2.90;82.19;95745.05;108842;1278;138145;-85
2024/01/17 00:05:57;;;;;;;6.90;5.40;;;;;;;-2.87;82.11;95744.45;108864;1278;22583;-85
2024/01/17 00:08:26;;;;;;;6.20;4.90;;;;;;;-2.86;82.38;95741.02;108951;1278;24207;-85
2024/01/17 00:10:53;;;;;;;6.10;5.40;;;;;;;-2.90;81.93;95738.75;108710;1278;137672;-85
2024/01/17 00:13:19;;;;;;;7.10;5.50;;;;;;;-3.02;81.68;95736.37;108792;1263;24268;-85
2024/01/17 00:15:46;;;;;;;6.40;5.40;;;;;;;-3.09;82.05;95735.07;108840;1278;138199;-85
2024/01/17 00:18:13;;;;;;;5.90;5.30;;;;;;;-3.16;82.44;95732.36;108883;1270;23103;-85
2024/01/17 00:20:39;;;;;;;5.70;5.10;;;;;;;-3.22;82.59;95727.05;108867;1278;22597;-85
2024/01/17 00:23:06;;;;;;;7.40;4.80;;;;;;;-3.29;82.59;95717.09;108711;1273;137610;-85
2024/01/17 00:25:33;;;;;;;4.70;4.30;;;;;;;-3.38;82.76;95713.65;108796;1277;22621;-85
2024/01/17 00:27:59;;;;;;;8.40;5.00;;;;;;;-3.43;82.65;95710.01;108543;1278;137282;-85
2024/01/17 00:30:26;;;;;;;5.80;5.10;;;;;;;-3.50;82.73;95701.39;108843;1278;22523;-85
2024/01/17 00:32:53;;;;;;;5.80;5.30;;;;;;;-3.51;82.94;95696.19;108782;1278;22524;-84
2024/01/17 00:35:19;;;;;;;7.40;5.50;;;;;;;-3.54;82.69;95695.56;108682;1278;137804;-85
2024/01/17 00:37:46;;;;;;;4.40;4.00;;;;;;;-3.60;82.69;95692.78;108817;1267;22531;-85
2024/01/17 00:40:14;;;;;;;6.00;4.80;;;;;;;-3.60;82.73;95691.11;108682;1261;138048;-85
2024/01/17 00:42:41;;;;;;;7.50;4.90;;;;;;;-3.62;82.56;95697.16;108878;1278;22572;-85
2024/01/17 00:45:08;;;;;;;6.20;4.10;;;;;;;-3.67;82.45;95697.70;108784;1276;22550;-85
2024/01/17 00:47:35;;;;;;;5.20;4.10;;;;;;;-3.68;82.70;95699.93;108593;1278;136984;-85
2024/01/17 00:50:01;;;;;;;5.00;4.20;;;;;;;-3.66;82.61;95698.08;108877;1278;23140;-85
2024/01/17 00:52:30;;;;;;;5.30;4.50;;;;;;;-3.65;82.63;95697.92;108720;1273;137720;-84
2024/01/17 00:54:56;;;;;;;5.60;4.40;;;;;;;-3.60;82.77;95693.83;108928;1278;25268;-84
2024/01/17 00:57:23;;;;;;;5.90;4.30;;;;;;;-3.60;82.72;95691.63;108847;1267;22549;-84
2024/01/17 00:59:50;;;;;;;6.30;4.50;;;;;;;-3.66;82.84;95693.52;108831;1278;137407;-85
2024/01/17 01:02:16;;;;;;;7.50;6.80;;;;;;;-3.71;82.55;95690.03;108916;1273;22532;-84
2024/01/17 01:04:43;;;;;;;4.80;4.30;;;;;;;-3.69;82.60;95686.98;108562;1278;137310;-85
2024/01/17 01:07:10;;;;;;;4.70;4.30;;;;;;;-3.66;82.76;95680.17;108679;1257;22528;-85
2024/01/17 01:09:37;;;;;;;6.30;4.50;;;;;;;-3.66;82.90;95677.95;108740;1278;137241;-85
2024/01/17 01:12:03;;;;;;;9.80;5.60;;;;;;;-3.65;82.79;95679.90;108907;1271;23360;-85
2024/01/17 01:14:30;;;;;;;4.80;4.20;;;;;;;-3.63;82.54;95677.42;108951;1267;25352;-84
2024/01/17 01:17:05;;;;;;;4.90;3.90;;;;;;;-3.59;82.58;95675.79;108804;1271;137745;-85
2024/01/17 01:19:31;;;;;;;5.30;3.60;;;;;;;-3.57;82.40;95672.10;108800;1272;22559;-85
2024/01/17 01:21:58;;;;;;;4.30;3.80;;;;;;;-3.54;82.25;95667.99;108690;1278;137835;-85
2024/01/17 01:24:25;;;;;;;5.70;3.70;;;;;;;-3.54;82.23;95670.19;108695;1278;22559;-85
2024/01/17 01:26:52;;;;;;;4.90;3.50;;;;;;;-3.55;81.85;95665.88;108674;1278;22617;-85
2024/01/17 01:29:18;;;;;;;5.10;4.60;;;;;;;-3.61;81.81;95663.93;108793;1278;136967;-85
2024/01/17 01:31:45;;;;;;;4.30;3.60;;;;;;;-3.63;82.08;95660.67;108928;1278;22528;-84
2024/01/17 01:34:11;;;;;;;4.10;3.70;;;;;;;-3.66;81.79;95657.70;108832;1276;138391;-85
2024/01/17 01:36:38;;;;;;;4.80;3.80;;;;;;;-3.70;81.80;95657.16;108924;1259;22556;-85
2024/01/17 01:39:04;;;;;;;6.80;5.40;;;;;;;-3.76;81.79;95651.82;108886;1278;22531;-84
2024/01/17 01:41:31;;;;;;;5.50;3.70;;;;;;;-3.84;81.81;95647.48;108774;1278;137227;-85
2024/01/17 01:43:57;;;;;;;7.20;3.70;;;;;;;-3.91;82.10;95644.65;108882;1278;22527;-85
2024/01/17 01:46:27;;;;;;;22.00;9.70;;;;;;;-3.96;82.13;95651.08;108736;1278;137083;-85
2024/01/17 01:48:54;;;;;;;7.40;4.80;;;;;;;-4.01;82.33;95637.38;108765;1272;25364;-85
2024/01/17 01:51:21;;;;;;;7.10;5.00;;;;;;;-4.08;82.43;95636.19;108763;1256;22520;-85
2024/01/17 01:53:48;;;;;;;6.30;4.30;;;;;;;-4.10;82.77;95627.20;108747;1262;137066;-85
2024/01/17 01:56:17;;;;;;;21.90;9.20;;;;;;;-4.10;83.03;95627.23;110203;1270;22141;-85
2024/01/17 01:58:45;;;;;;;14.30;6.50;;;;;;;-4.01;83.23;95623.88;109996;1278;138581;-85
2024/01/17 02:01:11;;;;;;;12.10;8.00;;;;;;;-3.92;83.06;95623.01;109958;1274;22554;-85
2024/01/17 02:03:39;;;;;;;7.20;4.60;;;;;;;-3.85;82.82;95621.52;108573;1278;138094;-85
2024/01/17 02:06:06;;;;;;;8.90;5.20;;;;;;;-3.77;82.71;95614.99;108763;1272;22574;-84
2024/01/17 02:08:32;;;;;;;9.30;6.60;;;;;;;-3.64;83.13;95614.36;108824;1277;24641;-85
2024/01/17 02:10:59;;;;;;;6.20;4.70;;;;;;;-3.53;83.02;95612.02;108820;1278;138459;-84
2024/01/17 02:13:25;;;;;;;7.30;5.00;;;;;;;-3.52;82.77;95608.78;108816;1272;23312;-85
2024/01/17 02:15:52;;;;;;;6.20;5.60;;;;;;;-3.55;82.66;95603.21;108712;1270;137275;-85
2024/01/17 02:18:19;;;;;;;6.50;4.90;;;;;;;-3.49;83.04;95605.13;108675;1278;22531;-85
2024/01/17 02:20:45;;;;;;;9.30;6.30;;;;;;;-3.46;82.85;95604.06;108720;1274;22546;-85
2024/01/17 02:23:28;;;;;;;9.10;6.20;;;;;;;-3.46;82.69;95602.70;108784;1267;137310;-85
2024/01/17 02:25:55;;;;;;;;;;;;;;;-3.49;82.56;95591.23;108933;1270;22510;-85
2024/01/17 02:28:22;;;;;;;8.30;5.20;;;;;;;-3.56;82.39;95589.10;108777;1278;123486;-85
2024/01/17 02:30:48;;;;;;;8.50;5.40;;;;;;;-3.64;82.66;95581.34;108778;1278;22543;-85
2024/01/17 02:33:15;;;;;;;8.80;6.40;;;;;;;-3.58;82.96;95572.48;108837;1278;22594;-85
2024/01/17 02:35:42;;;;;;;9.60;7.00;;;;;;;-3.51;83.12;95569.37;108736;1260;138117;-85
2024/01/17 02:38:08;;;;;;;8.10;5.70;;;;;;;-3.44;82.98;95563.41;108864;1278;22518;-85
2024/01/17 02:40:35;;;;;;;10.20;6.20;;;;;;;-3.45;82.31;95561.33;108693;1270;138145;-85
2024/01/17 02:43:02;;;;;;;14.10;8.90;;;;;;;-3.41;82.36;95555.58;108895;1278;23487;-84
2024/01/17 02:45:29;;;;;;;14.40;8.80;;;;;;;-3.43;82.02;95556.38;108791;1272;137243;-85
2024/01/17 02:47:55;;;;;;;16.60;10.30;;;;;;;-3.51;81.91;95554.48;108758;1272;24380;-84
2024/01/17 02:50:22;;;;;;;13.60;8.40;;;;;;;-3.58;82.28;95554.88;108749;1278;25258;-85
2024/01/17 02:52:49;;;;;;;13.70;9.60;;;;;;;-3.62;82.45;95557.35;108611;1273;137518;-85
2024/01/17 02:55:16;;;;;;;9.30;7.10;;;;;;;-3.68;82.41;95550.52;108587;1278;22532;-84
2024/01/17 02:57:43;;;;;;;15.80;9.20;;;;;;;-3.75;82.58;95543.76;108514;1263;137801;-85
2024/01/17 03:00:10;;;;;;;11.20;7.40;;;;;;;-3.83;82.72;95539.79;108846;1278;22524;-85
2024/01/17 03:02:37;;;;;;;9.60;6.90;;;;;;;-3.89;83.09;95541.65;108691;1278;24234;-85
2024/01/17 03:05:05;;;;;;;11.00;8.20;;;;;;;-3.90;83.03;95543.54;108782;1278;137578;-85
2024/01/17 03:07:32;;;;;;;16.50;10.40;;;;;;;-3.87;83.11;95539.98;108889;1278;22552;-85
2024/01/17 03:10:00;;;;;;;11.90;8.50;;;;;;;-3.88;82.82;95541.06;108709;1275;138776;-85
2024/01/17 03:12:26;;;;;;;14.20;8.90;;;;;;;-3.89;82.85;95547.23;108842;1259;22578;-85
2024/01/17 03:14:53;;;;;;;10.60;8.30;;;;;;;-3.92;82.56;95546.06;108888;1260;22599;-85
2024/01/17 03:17:19;;;;;;;14.90;9.00;;;;;;;-3.93;82.40;95544.73;108684;1278;137234;-84
2024/01/17 03:19:48;;;;;;;13.90;8.20;;;;;;;-3.91;82.55;95542.77;108848;1270;22550;-84
2024/01/17 03:22:16;;;;;;;9.40;7.30;;;;;;;-3.96;82.58;95538.23;108810;1271;137056;-84
2024/01/17 03:24:45;;;;;;;9.60;7.30;;;;;;;-3.98;82.84;95538.34;110064;1278;23037;-85
2024/01/17 03:27:15;;;;;;;14.00;10.30;;;;;;;-4.00;82.63;95537.70;110148;1272;22194;-85
2024/01/17 03:29:41;;;;;;;12.00;6.70;;;;;;;-4.05;82.68;95536.40;109496;1275;137344;-85
2024/01/17 03:32:08;;;;;;;10.00;7.00;;;;;;;-4.09;82.90;95532.75;108748;1269;22558;-85
2024/01/17 03:34:34;;;;;;;8.40;6.80;;;;;;;-4.14;82.90;95533.81;108554;1270;137587;-84
2024/01/17 03:37:01;;;;;;;10.30;6.70;;;;;;;-4.15;82.84;95531.18;108877;1269;24278;-84
2024/01/17 03:39:28;;;;;;;15.40;8.70;;;;;;;-4.12;82.76;95529.24;108808;1278;22552;-85
2024/01/17 03:41:55;;;;;;;14.50;9.70;;;;;;;-4.08;82.33;95530.63;108858;1259;22534;-85
2024/01/17 03:44:22;;;;;;;11.40;8.00;;;;;;;-4.10;82.25;95529.66;108905;1270;22537;-85
2024/01/17 03:46:48;;;;;;;14.50;9.30;;;;;;;-4.12;82.36;95528.42;108627;1272;137161;-84
2024/01/17 03:49:15;;;;;;;10.90;7.30;;;;;;;-4.14;82.45;95522.65;108824;1275;23232;-84
2024/01/17 03:51:42;;;;;;;9.20;6.70;;;;;;;-4.14;82.23;95520.46;108597;1278;137976;-84
2024/01/17 03:54:08;;;;;;;7.90;6.40;;;;;;;-4.11;82.57;95519.05;108660;1278;22524;-85
2024/01/17 03:56:35;;;;;;;6.40;5.50;;;;;;;-4.11;82.49;95514.81;108895;1278;22531;-85
2024/01/17 03:59:02;;;;;;;6.80;5.60;;;;;;;-4.06;82.31;95514.82;108587;1278;137421;-85
2024/01/17 04:01:29;;;;;;;7.50;4.70;;;;;;;-4.02;82.26;95509.60;108863;1259;22542;-85
2024/01/17 04:03:55;;;;;;;5.20;4.60;;;;;;;-3.99;82.13;95509.16;108819;1270;137265;-85
2024/01/17 04:06:22;;;;;;;4.40;3.90;;;;;;;-3.95;81.73;95505.46;108710;1259;26425;-85
2024/01/17 04:08:49;;;;;;;6.30;4.70;;;;;;;-3.95;81.84;95497.34;108058;1270;22524;-85
2024/01/17 04:11:16;;;;;;;7.00;5.00;;;;;;;-3.91;81.33;95492.15;108630;1278;137575;-85
2024/01/17 04:13:43;;;;;;;5.20;4.70;;;;;;;-3.85;81.15;95498.70;108725;1274;23724;-85
2024/01/17 04:16:11;;;;;;;8.00;6.20;;;;;;;-3.73;80.46;95490.45;108744;1278;137857;-85
2024/01/17 04:18:37;;;;;;;14.70;10.10;;;;;;;-3.65;80.38;95493.92;108734;1278;22553;-85
2024/01/17 04:21:04;;;;;;;13.70;10.00;;;;;;;-3.75;79.65;95487.93;108862;1278;22541;-84
2024/01/17 04:23:30;;;;;;;21.00;13.20;;;;;;;-3.89;79.75;95486.27;108662;1278;137398;-85
2024/01/17 04:25:57;;;;;;;17.30;10.90;;;;;;;-3.99;79.64;95485.48;108772;1273;25347;-84
2024/01/17 04:28:23;;;;;;;17.10;10.70;;;;;;;-4.10;80.24;95477.38;108729;1273;138088;-84
2024/01/17 04:30:50;;;;;;;77.10;34.80;;;;;;;-4.16;80.35;95477.52;108906;1270;22579;-84
2024/01/17 04:33:17;;;;;;;83.50;38.20;;;;;;;-4.19;80.05;95477.06;108915;1278;25275;-84
2024/01/17 04:35:44;;;;;;;85.30;33.90;;;;;;;-4.26;80.16;95471.94;108697;1278;137694;-85
2024/01/17 04:38:10;;;;;;;76.10;36.60;;;;;;;-4.32;79.96;95465.97;108896;1275;23176;-84
2024/01/17 04:40:38;;;;;;;58.60;27.40;;;;;;;-4.40;79.94;95453.02;108797;1270;137968;-85
2024/01/17 04:43:04;;;;;;;48.60;26.90;;;;;;;-4.41;80.27;95452.06;108903;1271;22545;-84
2024/01/17 04:45:31;;;;;;;32.50;18.30;;;;;;;-4.42;80.42;95450.69;108747;1278;137942;-85
2024/01/17 04:47:58;;;;;;;36.80;15.00;;;;;;;-4.42;80.53;95440.34;108826;1270;23291;-85
2024/01/17 04:50:24;;;;;;;12.40;8.10;;;;;;;-4.21;80.06;95434.92;108902;1272;22541;-85
2024/01/17 04:52:51;;;;;;;9.30;6.70;;;;;;;-3.92;80.05;95420.87;108801;1278;137236;-85
2024/01/17 04:55:17;;;;;;;26.60;13.70;;;;;;;-3.67;79.94;95409.64;108828;1277;22541;-85
2024/01/17 04:57:44;;;;;;;10.20;6.00;;;;;;;-3.50;79.41;95407.41;108584;1270;138581;-85
2024/01/17 05:00:14;;;;;;;3.90;3.60;;;;;;;-3.33;78.60;95403.60;108912;1278;22997;-85
2024/01/17 05:02:41;;;;;;;8.70;5.10;;;;;;;-3.15;78.65;95404.03;108930;1278;26469;-84
2024/01/17 05:05:10;;;;;;;12.60;5.30;;;;;;;-3.06;78.36;95405.43;108815;1270;137233;-85
2024/01/17 05:07:37;;;;;;;6.60;4.70;;;;;;;-2.97;78.05;95405.61;108909;1263;22547;-85
2024/01/17 05:10:04;;;;;;;6.00;4.90;;;;;;;-2.88;77.62;95404.03;108795;1272;137277;-84
2024/01/17 05:12:33;;;;;;;3.50;3.20;;;;;;;-2.80;77.27;95402.69;108880;1278;22559;-85
2024/01/17 05:14:59;;;;;;;5.30;3.60;;;;;;;-2.75;77.02;95400.56;108722;1260;22607;-85
2024/01/17 05:17:26;;;;;;;3.70;3.40;;;;;;;-2.69;76.81;95392.33;108807;1270;137266;-85
2024/01/17 05:19:52;;;;;;;4.00;3.60;;;;;;;-2.64;76.49;95390.17;108810;1262;25229;-85
2024/01/17 05:22:19;;;;;;;3.10;2.90;;;;;;;-2.57;75.18;95386.61;108816;1271;138118;-85
2024/01/17 05:24:45;;;;;;;3.80;3.20;;;;;;;-2.51;76.04;95386.08;108908;1270;22527;-85
2024/01/17 05:27:12;;;;;;;5.50;3.50;;;;;;;-2.46;76.30;95376.35;108898;1272;22551;-86
2024/01/17 05:29:43;;;;;;;9.30;4.50;;;;;;;-2.46;75.84;95372.91;108587;1278;137484;-86
2024/01/17 05:32:10;;;;;;;3.60;3.20;;;;;;;-2.45;76.38;95377.58;108727;1273;22559;-86
2024/01/17 05:34:37;;;;;;;3.70;3.30;;;;;;;-2.44;75.77;95370.38;108728;1271;137922;-86
2024/01/17 05:37:06;;;;;;;3.30;2.90;;;;;;;-2.41;75.55;95367.82;108861;1272;23012;-86
2024/01/17 05:39:32;;;;;;;4.50;3.90;;;;;;;-2.40;74.98;95370.42;108741;1278;137136;-86
2024/01/17 05:42:00;;;;;;;5.60;4.30;;;;;;;-2.39;75.34;95374.81;108861;1278;22588;-86
2024/01/17 05:44:27;;;;;;;6.70;5.50;;;;;;;-2.45;75.52;95368.65;108833;1267;23086;-86
2024/01/17 05:46:53;;;;;;;7.50;4.90;;;;;;;-2.60;74.78;95369.52;108770;1278;137074;-85
2024/01/17 05:49:20;;;;;;;7.30;4.60;;;;;;;-2.69;74.82;95372.38;108788;1278;25401;-86
2024/01/17 05:51:46;;;;;;;11.70;6.50;;;;;;;-2.64;74.62;95369.05;108792;1270;138717;-86
2024/01/17 05:54:13;;;;;;;11.60;6.90;;;;;;;-2.60;74.86;95366.16;108824;1278;26412;-86
2024/01/17 05:56:40;;;;;;;22.70;6.70;;;;;;;-2.64;74.56;95374.09;108804;1254;22550;-86
2024/01/17 05:59:06;;;;;;;4.10;3.70;;;;;;;-2.65;73.47;95361.48;108579;1276;137239;-86
2024/01/17 06:01:34;;;;;;;6.90;4.00;;;;;;;-2.60;73.00;95365.69;108641;1256;22528;-86
2024/01/17 06:04:02;;;;;;;5.20;3.30;;;;;;;-2.57;73.47;95367.83;108743;1272;137305;-86
2024/01/17 06:06:29;;;;;;;9.60;5.70;;;;;;;-2.56;73.39;95359.92;108827;1267;22582;-85
2024/01/17 06:08:55;;;;;;;6.40;4.30;;;;;;;-2.55;73.40;95356.27;108745;1272;25270;-86
2024/01/17 06:11:22;;;;;;;6.40;3.40;;;;;;;-2.53;73.62;95361.48;108744;1277;137146;-86
2024/01/17 06:13:48;;;;;;;6.20;3.20;;;;;;;-2.49;72.58;95360.97;108615;1273;22580;-86
2024/01/17 06:16:15;;;;;;;6.50;4.10;;;;;;;-2.44;73.02;95363.27;108752;1278;137389;-86
2024/01/17 06:18:42;;;;;;;5.00;4.50;;;;;;;-2.43;73.49;95356.55;108894;1278;22695;-86
2024/01/17 06:21:08;;;;;;;9.20;5.00;;;;;;;-2.42;72.61;95350.77;108850;1275;22568;-86
2024/01/17 06:23:38;;;;;;;3.70;3.20;;;;;;;-2.38;72.77;95345.34;108690;1278;137423;-86
2024/01/17 06:26:04;;;;;;;3.90;3.20;;;;;;;-2.35;72.77;95340.98;108762;1276;22558;-86
2024/01/17 06:28:33;;;;;;;6.70;4.90;;;;;;;-2.33;72.91;95340.31;108622;1278;137183;-86
2024/01/17 06:31:01;;;;;;;4.10;3.50;;;;;;;-2.31;73.11;95334.23;108818;1272;22544;-86
2024/01/17 06:33:27;;;;;;;4.30;3.90;;;;;;;-2.29;72.13;95327.41;108671;1275;23500;-87
2024/01/17 06:35:55;;;;;;;3.30;3.00;;;;;;;-2.23;72.20;95318.30;108895;1270;22589;-87
2024/01/17 06:38:22;;;;;;;3.90;3.00;;;;;;;-2.18;72.13;95316.17;108806;1270;22531;-87
2024/01/17 06:40:50;;;;;;;3.60;3.30;;;;;;;-2.16;72.58;95309.56;108559;1274;137186;-87
2024/01/17 06:43:17;;;;;;;2.70;2.50;;;;;;;-2.16;72.45;95306.83;108858;1272;22543;-87
2024/01/17 06:45:43;;;;;;;4.00;3.50;;;;;;;-2.14;72.69;95297.32;108663;1272;137323;-87
2024/01/17 06:48:10;;;;;;;6.40;3.60;;;;;;;-2.10;72.86;95298.73;108535;1270;22639;-87
2024/01/17 06:50:36;;;;;;;3.90;3.50;;;;;;;-2.08;72.30;95303.14;108659;1275;22470;-88
2024/01/17 06:53:03;;;;;;;6.80;5.30;;;;;;;-2.06;72.80;95297.19;108738;1272;137232;-88
2024/01/17 06:55:30;;;;;;;11.60;6.10;;;;;;;-2.08;73.50;95286.82;108793;1273;22625;-88
2024/01/17 06:57:56;;;;;;;5.60;3.50;;;;;;;-2.08;72.87;95278.89;108766;1270;137509;-89
2024/01/17 07:00:24;;;;;;;3.50;3.20;;;;;;;-2.06;73.24;95283.42;108710;1270;22523;-87
2024/01/17 07:02:51;;;;;;;7.90;4.40;;;;;;;-2.03;73.33;95277.77;108786;1270;23282;-88
2024/01/17 07:05:18;;;;;;;12.20;7.70;;;;;;;-2.00;73.23;95277.46;108486;1278;137307;-87
2024/01/17 07:07:44;;;;;;;9.70;5.10;;;;;;;-1.98;73.49;95271.55;108812;1272;22747;-87
2024/01/17 07:10:11;;;;;;;6.00;3.90;;;;;;;-1.98;73.23;95260.13;108762;1270;136200;-88
2024/01/17 07:12:38;;;;;;;7.00;3.50;;;;;;;-1.96;73.16;95260.61;108858;1272;22638;-87
2024/01/17 07:15:05;;;;;;;4.00;3.60;;;;;;;-1.91;73.07;95256.16;108837;1272;22543;-88
2024/01/17 07:17:32;;;;;;;4.20;3.40;;;;;;;-1.86;72.53;95252.77;108653;1272;137442;-88
2024/01/17 07:19:58;;;;;;;10.30;4.90;;;;;;;-1.81;72.89;95248.30;108656;1270;22586;-88
2024/01/17 07:22:25;;;;;;;9.20;4.00;;;;;;;-1.79;73.19;95253.94;108594;1277;137583;-88
2024/01/17 07:24:52;;;;;;;17.00;6.50;;;;;;;-1.78;73.33;95250.25;108815;1269;22631;-87
2024/01/17 07:27:19;;;;;;;11.40;5.50;;;;;;;-1.76;73.06;95250.49;108632;1275;22544;-87
2024/01/17 07:29:45;;;;;;;6.50;4.50;;;;;;;-1.79;73.03;95243.21;108810;1270;137292;-87
2024/01/17 07:32:13;;;;;;;5.30;4.10;;;;;;;-1.82;72.65;95249.20;108761;1272;22543;-87
2024/01/17 07:34:40;;;;;;;6.40;4.10;;;;;;;-1.78;73.03;95250.14;108644;1270;137189;-86
2024/01/17 07:37:07;;;;;;;7.20;5.80;;;;;;;-1.79;73.08;95236.43;108638;1273;22663;-86
2024/01/17 07:39:38;;;;;;;5.80;4.80;;;;;;;-1.82;72.98;95241.06;108592;1272;137767;-87
2024/01/17 07:42:05;;;;;;;7.00;4.20;;;;;;;-1.78;73.36;95245.91;108623;1270;23222;-86
2024/01/17 07:44:33;;;;;;;8.30;5.10;;;;;;;-1.77;73.34;95234.39;108561;1274;22633;-86
2024/01/17 07:47:00;;;;;;;21.60;7.70;;;;;;;-1.77;72.01;95227.81;108585;1272;137442;-87
2024/01/17 07:49:26;;;;;;;11.70;7.20;;;;;;;-1.76;73.23;95222.96;108742;1270;22553;-86
2024/01/17 07:51:53;;;;;;;8.30;5.80;;;;;;;-1.84;73.19;95221.05;108686;1273;140407;-87
2024/01/17 07:54:20;;;;;;;13.70;8.40;;;;;;;-1.90;73.18;95217.86;108681;1275;22598;-87
2024/01/17 07:56:46;;;;;;;13.40;9.30;;;;;;;-1.93;72.68;95209.35;108467;1275;25305;-87
2024/01/17 07:59:13;;;;;;;23.20;12.20;;;;;;;-1.99;73.32;95205.41;108598;1272;137850;-87
2024/01/17 08:01:40;;;;;;;10.60;7.10;;;;;;;-2.01;73.51;95192.72;108754;1272;22606;-87
2024/01/17 08:04:07;;;;;;;8.40;5.20;;;;;;;-1.93;73.34;95186.78;108399;1275;137616;-86
2024/01/17 08:06:34;;;;;;;8.20;4.90;;;;;;;-1.84;73.74;95186.20;108541;1270;24218;-87
2024/01/17 08:09:02;;;;;;;4.80;3.30;;;;;;;-1.75;73.13;95180.36;108596;1272;22537;-87
2024/01/17 08:11:28;;;;;;;3.60;3.20;;;;;;;-1.63;72.61;95181.88;108566;1272;139388;-87
2024/01/17 08:13:55;;;;;;;3.80;3.40;;;;;;;-1.54;72.78;95168.66;108621;1275;22572;-86
2024/01/17 08:16:21;;;;;;;4.80;3.60;;;;;;;-1.47;72.87;95169.27;108672;1270;137028;-87
2024/01/17 08:18:48;;;;;;;9.10;4.60;;;;;;;-1.41;71.64;95161.03;108673;1270;22617;-86
2024/01/17 08:21:15;;;;;;;4.90;4.00;;;;;;;-1.33;71.96;95159.23;108489;1270;22530;-87
2024/01/17 08:23:42;;;;;;;3.80;3.30;;;;;;;-1.30;72.11;95152.90;108610;1272;137110;-87
2024/01/17 08:26:08;;;;;;;4.30;3.60;;;;;;;-1.29;72.69;95160.84;108497;1278;27341;-87
2024/01/17 08:28:35;;;;;;;4.90;4.20;;;;;;;-1.27;71.78;95149.59;108666;1271;137428;-86
2024/01/17 08:31:03;;;;;;;17.20;11.40;;;;;;;-1.23;72.07;95151.23;108660;1272;22591;-87
2024/01/17 08:33:30;;;;;;;5.30;3.90;;;;;;;-1.17;72.13;95144.89;108526;1275;137613;-87
2024/01/17 08:35:57;;;;;;;8.90;6.70;;;;;;;-1.12;72.15;95136.52;108532;1272;24596;-87
2024/01/17 08:38:24;;;;;;;5.60;3.70;;;;;;;-1.10;71.72;95149.52;108600;1270;22534;-87
2024/01/17 08:40:51;;;;;;;4.30;3.60;;;;;;;-1.07;72.09;95145.48;108386;1277;137155;-87
2024/01/17 08:43:18;;;;;;;4.00;2.60;;;;;;;-1.02;71.82;95133.56;108528;1273;22608;-87
2024/01/17 08:45:45;;;;;;;3.90;3.50;;;;;;;-0.96;70.56;95137.73;108391;1275;137196;-87
2024/01/17 08:48:12;;;;;;;4.60;3.50;;;;;;;-0.85;71.07;95137.05;108603;1270;22560;-87
2024/01/17 08:50:39;;;;;;;8.00;5.40;;;;;;;-0.78;70.92;95135.40;108532;1275;26698;-87
2024/01/17 08:53:05;;;;;;;6.40;4.30;;;;;;;-0.73;70.86;95130.98;108559;1273;137282;-87
2024/01/17 08:55:32;;;;;;;14.50;8.10;;;;;;;-0.69;70.63;95127.54;108561;1270;22557;-86
2024/01/17 08:57:59;;;;;;;5.80;4.00;;;;;;;-0.66;70.86;95122.69;108472;1273;137429;-87
2024/01/17 09:00:25;;;;;;;8.10;5.90;;;;;;;-0.63;70.84;95130.21;108523;1271;22532;-87
2024/01/17 09:02:52;;;;;;;5.40;4.20;;;;;;;-0.59;70.84;95120.16;108452;1275;23239;-87
2024/01/17 09:05:20;;;;;;;4.70;3.50;;;;;;;-0.57;70.60;95115.84;108490;1272;137023;-86
2024/01/17 09:07:49;;;;;;;5.50;4.10;;;;;;;-0.54;70.69;95118.80;108512;1270;22640;-87
2024/01/17 09:10:17;;;;;;;4.20;3.60;;;;;;;-0.51;70.61;95103.04;108474;1270;137314;-87
2024/01/17 09:12:44;;;;;;;4.90;3.70;;;;;;;-0.48;70.65;95092.91;108477;1270;24269;-86
2024/01/17 09:15:11;;;;;;;3.80;3.30;;;;;;;-0.44;70.14;95086.46;108577;1273;22619;-87
2024/01/17 09:17:37;;;;;;;5.20;3.80;;;;;;;-0.41;69.68;95074.35;108471;1278;137406;-87
2024/01/17 09:20:06;;;;;;;3.40;3.10;;;;;;;-0.38;69.96;95061.18;108668;1272;22674;-87
2024/01/17 09:22:32;;;;;;;3.80;3.10;;;;;;;-0.33;69.32;95049.74;108393;1273;137094;-86
2024/01/17 09:25:02;;;;;;;4.50;3.20;;;;;;;-0.24;69.15;95046.23;108665;1272;22585;-85
2024/01/17 09:27:29;;;;;;;5.30;3.70;;;;;;;-0.18;69.68;95032.20;108593;1274;137185;-86
2024/01/17 09:29:56;;;;;;;2.90;2.50;;;;;;;-0.15;69.39;95031.73;108670;1270;22536;-86
2024/01/17 09:32:22;;;;;;;4.20;3.40;;;;;;;-0.11;70.03;95020.42;108561;1261;22511;-86
2024/01/17 09:34:49;;;;;;;5.70;3.50;;;;;;;-0.06;68.73;95013.81;108544;1267;137249;-86
2024/01/17 09:37:16;;;;;;;3.40;3.10;;;;;;;-0.03;68.13;95012.27;108717;1278;22524;-86
2024/01/17 09:39:43;;;;;;;3.20;2.90;;;;;;;-0.01;68.48;95008.19;108535;1272;137221;-85
2024/01/17 09:42:13;;;;;;;3.90;3.60;;;;;;;-0.01;68.62;95011.71;108688;1270;25487;-86
2024/01/17 09:44:39;;;;;;;4.40;3.30;;;;;;;-0.00;68.57;95003.20;108489;1275;22580;-86
2024/01/17 09:47:06;;;;;;;4.70;3.50;;;;;;;-0.02;68.93;94997.17;108462;1270;137048;-86
2024/01/17 09:49:33;;;;;;;4.00;3.40;;;;;;;0.00;68.45;94994.48;108512;1274;22524;-86
2024/01/17 09:52:03;;;;;;;5.10;3.50;;;;;;;0.05;69.05;94984.16;108555;1273;137014;-86
2024/01/17 09:54:32;;;;;;;3.80;3.40;;;;;;;0.09;69.16;94975.09;108486;1270;22680;-86
2024/01/17 09:56:59;;;;;;;3.60;3.00;;;;;;;0.14;69.53;94979.16;108706;1270;22546;-86
2024/01/17 09:59:28;;;;;;;4.30;3.40;;;;;;;0.17;69.09;94974.73;108519;1270;136800;-86
2024/01/17 10:01:55;;;;;;;4.10;2.90;;;;;;;0.21;68.94;94966.98;108572;1275;22744;-86
2024/01/17 10:04:24;;;;;;;4.60;3.00;;;;;;;0.29;69.66;94964.00;108467;1270;136993;-86
2024/01/17 10:06:52;;;;;;;5.10;3.40;;;;;;;0.36;69.74;94963.73;108649;1272;22548;-86
2024/01/17 10:09:22;;;;;;;3.20;2.90;;;;;;;0.40;70.03;94960.39;108683;1277;22520;-86
2024/01/17 10:11:49;;;;;;;3.90;2.90;;;;;;;0.44;70.36;94964.86;108353;1275;136798;-86
2024/01/17 10:14:15;;;;;;;6.00;4.50;;;;;;;0.47;70.28;94965.55;108497;1272;25281;-86
2024/01/17 10:16:42;;;;;;;7.00;5.20;;;;;;;0.55;69.74;94957.95;108363;1276;136747;-86
2024/01/17 10:19:09;;;;;;;4.90;3.80;;;;;;;0.67;69.92;94955.80;108519;1275;22589;-88
2024/01/17 10:21:36;;;;;;;4.80;3.40;;;;;;;0.74;69.80;94950.77;108431;1275;136856;-86
2024/01/17 10:24:03;;;;;;;5.30;3.90;;;;;;;0.82;69.72;94952.02;108751;1262;22542;-87
2024/01/17 10:26:30;;;;;;;6.30;3.80;;;;;;;0.90;69.70;94940.61;108719;1270;25276;-86
2024/01/17 10:28:57;;;;;;;4.40;3.10;;;;;;;0.96;70.13;94933.83;108582;1270;136877;-86
2024/01/17 10:31:24;;;;;;;4.00;3.50;;;;;;;1.03;70.28;94934.66;108730;1273;22523;-86
2024/01/17 10:33:51;;;;;;;3.70;2.70;;;;;;;1.08;69.88;94937.38;108388;1275;137416;-87
2024/01/17 10:36:18;;;;;;;4.50;3.10;;;;;;;1.13;69.07;94919.94;108459;1278;22318;-87
2024/01/17 10:38:46;;;;;;;4.50;3.10;;;;;;;1.22;69.43;94916.19;108648;1278;22534;-87
2024/01/17 10:41:13;;;;;;;5.30;3.20;;;;;;;1.25;69.45;94906.23;108562;1275;136956;-86
2024/01/17 10:43:56;;;;;;;4.50;2.50;;;;;;;1.30;69.94;94911.04;108449;1279;146766;-87
2024/01/17 10:46:23;;;;;;;4.00;3.40;;;;;;;1.36;69.92;94899.36;108669;1272;136917;-87
2024/01/17 10:48:50;;;;;;;5.20;3.90;;;;;;;1.41;69.98;94890.07;108521;1273;25402;-87
2024/01/17 10:51:21;;;;;;;6.20;4.60;;;;;;;1.49;70.32;94887.23;109958;1278;22238;-88
2024/01/17 10:53:50;;;;;;;4.60;3.70;;;;;;;1.56;70.31;94880.36;109977;1274;136756;-87
2024/01/17 10:56:19;;;;;;;3.80;2.80;;;;;;;1.61;70.12;94877.18;108808;1278;25278;-88
2024/01/17 10:58:50;;;;;;;4.50;3.30;;;;;;;1.65;70.38;94871.84;108515;1275;136707;-87
2024/01/17 11:01:47;;;;;;;5.00;3.00;;;;;;;1.71;69.91;94866.41;108385;1279;22537;-87
2024/01/17 11:04:18;;;;;;;6.10;3.30;;;;;;;1.78;70.05;94860.02;108403;1279;136909;-87
2024/01/17 11:06:45;;;;;;;6.10;4.70;;;;;;;1.85;71.06;94849.02;108385;1275;22527;-87
2024/01/17 11:09:12;;;;;;;7.40;5.60;;;;;;;1.90;70.92;94848.83;108365;1275;25216;-87
2024/01/17 11:11:38;;;;;;;5.80;4.60;;;;;;;1.95;71.50;94841.90;108484;1275;137118;-87
2024/01/17 11:14:05;;;;;;;7.70;5.00;;;;;;;2.01;71.81;94843.88;108391;1279;22534;-87
2024/01/17 11:16:33;;;;;;;6.90;4.20;;;;;;;2.09;71.69;94832.75;108301;1270;136739;-87
2024/01/17 11:18:59;;;;;;;5.40;4.60;;;;;;;2.18;71.92;94826.30;108504;1279;22554;-87
2024/01/17 11:21:26;;;;;;;14.70;7.40;;;;;;;2.29;72.44;94821.67;108587;1272;22637;-87